Time;durP1;ratioP1;P1;durP2;ratioP2;P2;SDS_P1;SDS_P2;PMS_P1;PMS_P2;Temp;Humidity;BMP_temperature;BMP_pressure;BME280_temperature;BME280_humidity;BME280_pressure;Samples;Min_cycle;Max_cycle;Signal;HPM_P1;HPM_P2
2022/05/02 00:00:59;;;;;;;;;;;;;;;9.01;78.28;101030.44;4977088;28;19929;-67
2022/05/02 00:04:02;;;;;;;;;;;;;;;9.05;77.91;101033.78;4976576;28;19921;-67
2022/05/02 00:07:06;;;;;;;;;;;;;;;9.13;78.13;101026.53;4976866;28;20339;-67
2022/05/02 00:10:09;;;;;;;;;;;;;;;9.05;78.05;101032.00;4977129;28;20420;-66
2022/05/02 00:13:12;;;;;;;;;;;;;;;9.03;78.24;101023.41;4964870;28;19925;-66
2022/05/02 00:16:16;;;;;;;;;;;;;;;9.01;78.24;101025.22;4976723;28;19920;-66
2022/05/02 00:19:19;;;;;;;;;;;;;;;8.99;77.88;101021.81;4975982;28;19945;-67
2022/05/02 00:22:22;;;;;;;;;;;;;;;8.92;78.16;101022.94;4976513;28;20332;-67
2022/05/02 00:25:25;;;;;;;;;;;;;;;8.82;78.62;101019.00;4976671;28;19961;-66
2022/05/02 00:28:28;;;;;;;;;;;;;;;8.74;78.52;101027.13;4976876;28;19993;-66
2022/05/02 00:31:32;;;;;;;;;;;;;;;8.70;78.39;101014.22;4964389;28;20424;-66
2022/05/02 00:34:35;;;;;;;;;;;;;;;8.67;78.19;101020.41;4975921;28;19925;-67
2022/05/02 00:37:39;;;;;;;;;;;;;;;8.80;77.97;101015.59;4976177;28;19925;-66
2022/05/02 00:40:42;;;;;;;;;;;;;;;8.97;77.78;101015.81;4976486;28;20033;-67
2022/05/02 00:43:46;;;;;;;;;;;;;;;8.79;77.46;101006.06;4972138;28;20017;-67
2022/05/02 00:46:49;;;;;;;;;;;;;;;8.66;78.14;101007.44;4972837;28;20049;-67
2022/05/02 00:49:52;;;;;;;;;;;;;;;8.49;78.56;101002.84;4973013;28;19945;-66
2022/05/02 00:52:56;;;;;;;;;;;;;;;8.44;78.27;101005.59;4975831;28;19924;-67
2022/05/02 00:56:01;;;;;;;;;;;;;;;8.74;77.46;101000.16;4975909;28;19922;-66
2022/05/02 00:59:05;;;;;;;;;;;;;;;8.77;77.25;101005.25;4975389;28;19960;-67
2022/05/02 01:02:09;;;;;;;;;;;;;;;8.53;77.76;101007.88;4975714;28;19920;-66
2022/05/02 01:05:12;;;;;;;;;;;;;;;8.43;77.96;101006.50;4975054;28;20031;-66
2022/05/02 01:08:15;;;;;;;;;;;;;;;8.36;78.15;101010.22;4975640;28;19968;-66
2022/05/02 01:11:19;;;;;;;;;;;;;;;8.26;78.53;101011.41;4975636;28;19977;-67
2022/05/02 01:14:22;;;;;;;;;;;;;;;8.43;78.18;101003.91;4975909;28;19921;-67
2022/05/02 01:17:25;;;;;;;;;;;;;;;8.54;77.30;101004.34;4975299;28;20249;-67
2022/05/02 01:20:28;;;;;;;;;;;;;;;8.44;77.19;101012.56;4975304;28;19920;-66
2022/05/02 01:23:31;;;;;;;;;;;;;;;8.31;77.77;101001.69;4975383;28;20006;-66
2022/05/02 01:26:34;;;;;;;;;;;;;;;8.30;77.96;101000.84;4975373;28;19981;-67
2022/05/02 01:29:38;;;;;;;;;;;;;;;8.23;77.39;100995.88;4975593;28;19924;-67
2022/05/02 01:32:41;;;;;;;;;;;;;;;8.02;78.32;101008.75;4962555;28;19929;-67
2022/05/02 01:35:45;;;;;;;;;;;;;;;8.09;78.14;101002.44;4974956;28;20424;-66
2022/05/02 01:38:48;;;;;;;;;;;;;;;7.99;78.37;101001.06;4975045;28;19921;-66
2022/05/02 01:41:51;;;;;;;;;;;;;;;8.00;77.81;101007.94;4975070;28;20005;-67
2022/05/02 01:44:54;;;;;;;;;;;;;;;7.92;78.14;101002.16;4974914;28;19961;-66
2022/05/02 01:47:57;;;;;;;;;;;;;;;7.77;78.53;100997.47;4974814;28;19930;-66
2022/05/02 01:51:00;;;;;;;;;;;;;;;7.66;79.26;101008.25;4974796;28;20380;-66
2022/05/02 01:54:03;;;;;;;;;;;;;;;7.64;79.48;101000.47;4974791;28;19973;-66
2022/05/02 01:57:07;;;;;;;;;;;;;;;7.66;79.33;100996.06;4974840;28;19924;-66
2022/05/02 02:00:10;;;;;;;;;;;;;;;7.65;79.16;100996.94;4974626;28;19982;-66
2022/05/02 02:03:19;;;;;;;;;;;;;;;7.72;78.84;100996.75;4973959;28;20384;-66
2022/05/02 02:06:23;;;;;;;;;;;;;;;7.58;79.50;100997.22;4974744;28;20032;-67
2022/05/02 02:09:26;;;;;;;;;;;;;;;7.56;79.65;100993.78;4974628;28;20484;-66
2022/05/02 02:12:29;;;;;;;;;;;;;;;7.56;79.22;100996.41;4974484;28;19960;-66
2022/05/02 02:15:33;;;;;;;;;;;;;;;7.47;79.45;100997.56;4974436;28;20426;-66
2022/05/02 02:18:37;;;;;;;;;;;;;;;7.33;79.47;101000.59;4974316;28;20004;-66
2022/05/02 02:21:40;;;;;;;;;;;;;;;7.36;79.32;101002.25;4974665;28;19925;-66
2022/05/02 02:24:44;;;;;;;;;;;;;;;7.30;79.55;100999.81;4974331;28;19921;-66
2022/05/02 02:27:47;;;;;;;;;;;;;;;7.33;79.27;100997.97;4974543;28;19969;-66
2022/05/02 02:30:51;;;;;;;;;;;;;;;7.31;79.51;100998.94;4973363;28;20285;-66
2022/05/02 02:33:54;;;;;;;;;;;;;;;7.36;79.51;100994.44;4947217;29;19941;-67
2022/05/02 02:36:58;;;;;;;;;;;;;;;7.41;79.02;100992.56;4974261;28;19929;-66
2022/05/02 02:40:00;;;;;;;;;;;;;;;7.50;78.54;100992.25;4974279;28;19921;-67
2022/05/02 02:43:04;;;;;;;;;;;;;;;7.42;79.17;100989.88;4974116;28;20400;-66
2022/05/02 02:46:08;;;;;;;;;;;;;;;7.38;79.31;100984.84;4973967;28;19920;-66
2022/05/02 02:49:12;;;;;;;;;;;;;;;7.33;79.47;100984.97;4974231;28;20491;-66
2022/05/02 02:52:15;;;;;;;;;;;;;;;7.29;79.36;100987.72;4973995;28;20332;-66
2022/05/02 02:55:19;;;;;;;;;;;;;;;7.51;78.87;100982.69;4974039;28;19925;-66
2022/05/02 02:58:22;;;;;;;;;;;;;;;7.41;78.82;100976.94;4973924;28;19937;-67
2022/05/02 03:01:25;;;;;;;;;;;;;;;7.45;78.66;100973.34;4973579;28;19963;-67
2022/05/02 03:07:50;;;;;;;;;;;;;;;7.35;79.63;100974.53;4973873;28;20309;-66
2022/05/02 03:10:55;;;;;;;;;;;;;;;7.44;79.55;100967.28;4973915;28;19921;-67
2022/05/02 03:13:59;;;;;;;;;;;;;;;7.74;78.33;100963.72;4973549;28;19925;-66
2022/05/02 03:17:01;;;;;;;;;;;;;;;7.67;78.21;100953.50;4973501;28;19936;-67
2022/05/02 03:20:05;;;;;;;;;;;;;;;7.44;79.28;100961.25;4973789;28;20278;-67
2022/05/02 03:23:08;;;;;;;;;;;;;;;7.43;79.74;100955.19;4977570;28;19929;-67
2022/05/02 03:26:11;;;;;;;;;;;;;;;7.38;79.77;100953.63;4978020;28;19923;-66
2022/05/02 03:29:14;;;;;;;;;;;;;;;7.59;79.28;100954.66;4977414;28;19960;-66
2022/05/02 03:32:18;;;;;;;;;;;;;;;7.69;78.84;100951.72;4976844;28;19973;-67
2022/05/02 03:35:21;;;;;;;;;;;;;;;7.52;79.29;100959.22;4977570;28;19976;-66
2022/05/02 03:38:24;;;;;;;;;;;;;;;7.41;79.44;100956.13;4977490;28;19921;-67
2022/05/02 03:41:27;;;;;;;;;;;;;;;7.69;78.77;100956.94;4972584;28;20019;-66
2022/05/02 03:44:31;;;;;;;;;;;;;;;7.67;78.42;100953.50;4962623;28;19969;-66
2022/05/02 03:47:34;;;;;;;;;;;;;;;7.59;78.83;100952.91;4954304;29;19968;-67
2022/05/02 03:50:37;;;;;;;;;;;;;;;7.39;79.97;100957.91;4954927;28;19913;-66
2022/05/02 03:53:40;;;;;;;;;;;;;;;7.39;80.05;100958.78;4953513;29;20142;-67
2022/05/02 03:56:44;;;;;;;;;;;;;;;7.39;80.10;100960.53;4969399;28;19965;-66
2022/05/02 03:59:47;;;;;;;;;;;;;;;7.39;79.66;100963.13;4960080;28;19993;-67
2022/05/02 04:02:51;;;;;;;;;;;;;;;7.45;79.81;100957.72;4968535;28;19924;-67
2022/05/02 04:05:54;;;;;;;;;;;;;;;7.31;80.46;100955.56;4970746;28;19990;-67
2022/05/02 04:08:58;;;;;;;;;;;;;;;7.30;80.48;100959.06;4968142;28;19921;-66
2022/05/02 04:12:02;;;;;;;;;;;;;;;7.41;80.35;100961.34;4966138;28;19972;-67
2022/05/02 04:15:06;;;;;;;;;;;;;;;7.39;80.77;100965.72;4970774;28;19925;-67
2022/05/02 04:18:09;;;;;;;;;;;;;;;7.57;79.98;100962.53;4970448;28;19925;-67
2022/05/02 04:21:13;;;;;;;;;;;;;;;7.86;80.00;100953.75;4960402;28;19921;-66
2022/05/02 04:24:17;;;;;;;;;;;;;;;8.05;78.69;100955.72;4953719;29;19921;-67
2022/05/02 04:27:20;;;;;;;;;;;;;;;7.81;79.18;100960.84;4972738;28;19977;-66
2022/05/02 04:30:24;;;;;;;;;;;;;;;7.67;79.34;100958.72;4972454;28;19925;-66
2022/05/02 04:33:27;;;;;;;;;;;;;;;7.39;80.51;100963.13;4967796;28;19934;-67
2022/05/02 04:36:31;;;;;;;;;;;;;;;7.52;80.31;100964.44;4969928;28;19922;-67
2022/05/02 04:39:34;;;;;;;;;;;;;;;7.50;80.16;100970.56;4970907;28;20519;-66
2022/05/02 04:42:37;;;;;;;;;;;;;;;7.53;79.80;100960.94;4972148;28;20045;-66
2022/05/02 04:45:41;;;;;;;;;;;;;;;7.63;79.75;100962.34;4968991;28;19921;-66
2022/05/02 04:48:44;;;;;;;;;;;;;;;7.32;80.64;100961.63;4967128;28;19920;-66
2022/05/02 04:51:48;;;;;;;;;;;;;;;7.22;81.09;100963.66;4976079;28;19928;-66
2022/05/02 04:54:51;;;;;;;;;;;;;;;7.22;80.66;100964.50;4955563;29;19920;-66
2022/05/02 04:57:54;;;;;;;;;;;;;;;7.40;80.50;100964.81;4956676;29;19925;-66
2022/05/02 05:00:58;;;;;;;;;;;;;;;7.45;80.08;100973.34;4973620;28;20399;-66
2022/05/02 05:04:00;;;;;;;;;;;;;;;7.34;80.25;100965.00;4976077;28;19982;-66
2022/05/02 05:07:04;;;;;;;;;;;;;;;7.33;80.41;100968.53;4975977;28;20309;-66
2022/05/02 05:10:09;;;;;;;;;;;;;;;7.59;79.79;100963.31;4975998;28;19921;-66
2022/05/02 05:13:16;;;;;;;;;;;;;;;7.52;79.78;100968.78;4975624;28;19925;-66
2022/05/02 05:16:29;;;;;;;;;;;;;;;7.46;79.75;100962.00;4975830;28;19936;-66
2022/05/02 05:19:39;;;;;;;;;;;;;;;7.37;80.42;100970.13;4975699;28;19973;-66
2022/05/02 05:23:00;;;;;;;;;;;;;;;7.28;80.38;100968.69;4975464;28;19929;-66
2022/05/02 05:26:05;;;;;;;;;;;;;;;7.23;80.86;100963.59;4975374;28;19920;-67
2022/05/02 05:29:17;;;;;;;;;;;;;;;7.12;81.56;100964.84;4970241;28;19932;-66
2022/05/02 05:32:20;;;;;;;;;;;;;;;7.49;80.33;100961.91;4969670;28;19928;-66
2022/05/02 05:35:34;;;;;;;;;;;;;;;7.40;80.00;100970.91;4975415;28;19978;-66
2022/05/02 05:38:41;;;;;;;;;;;;;;;7.44;79.91;100969.88;4975140;28;19936;-66
2022/05/02 05:41:53;;;;;;;;;;;;;;;7.09;81.82;100965.78;4975076;28;19980;-66
2022/05/02 05:45:04;;;;;;;;;;;;;;;7.21;81.64;100970.63;4974721;28;19922;-66
2022/05/02 05:48:14;;;;;;;;;;;;;;;7.40;80.85;100972.63;4975214;28;19921;-66
2022/05/02 05:51:34;;;;;;;;;;;;;;;7.76;79.60;100972.34;4975312;28;20012;-66
2022/05/02 05:54:56;;;;;;;;;;;;;;;7.58;80.38;100973.78;4975095;28;20024;-66
2022/05/02 05:57:59;;;;;;;;;;;;;;;7.55;80.30;100974.72;4961838;28;19924;-66
2022/05/02 06:01:14;;;;;;;;;;;;;;;7.41;80.77;100974.34;4975160;28;20357;-66
2022/05/02 06:04:17;;;;;;;;;;;;;;;7.25;81.45;100973.97;4975029;28;19921;-66
2022/05/02 06:07:21;;;;;;;;;;;;;;;7.36;81.36;100971.03;4972949;28;19941;-66
2022/05/02 06:10:25;;;;;;;;;;;;;;;7.39;81.62;100970.94;4974744;28;19921;-66
2022/05/02 06:13:31;;;;;;;;;;;;;;;7.40;81.52;100976.09;4971317;28;19965;-66
2022/05/02 06:19:59;;;;;;;;;;;;;;;7.74;80.37;100971.53;4955604;29;20373;-66
2022/05/02 06:23:03;;;;;;;;;;;;;;;7.72;80.13;100965.50;4967083;28;19990;-66
2022/05/02 06:26:06;;;;;;;;;;;;;;;7.78;80.23;100954.91;4974044;28;19920;-66
2022/05/02 06:29:11;;;;;;;;;;;;;;;7.75;80.12;100965.41;4966232;28;20338;-66
2022/05/02 06:32:15;;;;;;;;;;;;;;;7.85;80.06;100957.25;4971335;28;19948;-67
2022/05/02 06:35:18;;;;;;;;;;;;;;;8.00;80.48;100950.66;4973930;28;19960;-67
2022/05/02 06:38:30;;;;;;;;;;;;;;;8.11;80.59;100950.31;4974406;28;19968;-67
2022/05/02 06:41:52;;;;;;;;;;;;;;;8.04;80.61;100957.47;4974116;28;19921;-67
2022/05/02 06:45:02;;;;;;;;;;;;;;;8.06;80.91;100950.44;4973996;28;19921;-67
2022/05/02 06:48:29;;;;;;;;;;;;;;;8.20;80.99;100949.09;4963039;28;20201;-67
2022/05/02 06:51:38;;;;;;;;;;;;;;;8.32;80.20;100939.09;4973664;28;19967;-67
2022/05/02 06:54:47;;;;;;;;;;;;;;;8.42;80.65;100944.00;4974250;28;19921;-67
2022/05/02 06:57:59;;;;;;;;;;;;;;;8.54;80.23;100944.41;4972583;28;19920;-67
2022/05/02 07:01:05;;;;;;;;;;;;;;;8.70;80.44;100943.84;4973991;28;19921;-67
2022/05/02 07:04:27;;;;;;;;;;;;;;;8.82;79.85;100935.56;4969256;28;19969;-67
2022/05/02 07:07:36;;;;;;;;;;;;;;;9.03;79.49;100942.56;4964242;28;19925;-68
2022/05/02 07:10:42;;;;;;;;;;;;;;;9.15;79.01;100937.75;4970585;28;19924;-68
2022/05/02 07:13:45;;;;;;;;;;;;;;;9.35;78.67;100935.19;4972294;28;20335;-67
2022/05/02 07:16:49;;;;;;;;;;;;;;;9.61;77.83;100933.28;4969952;28;19925;-67
2022/05/02 07:20:16;;;;;;;;;;;;;;;9.79;76.08;100932.47;4973441;28;20058;-67
2022/05/02 07:23:38;;;;;;;;;;;;;;;9.95;75.85;100930.06;4972928;28;20313;-68
2022/05/02 07:26:43;;;;;;;;;;;;;;;10.08;75.98;100930.38;4972303;28;19929;-67
2022/05/02 07:29:46;;;;;;;;;;;;;;;10.17;76.61;100930.81;4973403;28;19961;-68
2022/05/02 07:32:50;;;;;;;;;;;;;;;10.39;77.31;100930.75;4969959;28;19973;-69
2022/05/02 07:35:56;;;;;;;;;;;;;;;10.61;75.96;100937.63;4954123;29;20014;-69
2022/05/02 07:39:07;;;;;;;;;;;;;;;10.79;74.20;100934.19;4966882;28;19924;-68
2022/05/02 07:42:12;;;;;;;;;;;;;;;10.99;73.56;100930.63;4966463;28;19924;-68
2022/05/02 07:45:17;;;;;;;;;;;;;;;11.15;72.08;100934.19;4973162;28;19925;-68
2022/05/02 07:48:20;;;;;;;;;;;;;;;11.30;70.75;100924.75;4972715;28;19921;-69
2022/05/02 07:51:25;;;;;;;;;;;;;;;11.63;70.41;100919.59;4972729;28;19921;-68
2022/05/02 07:54:29;;;;;;;;;;;;;;;11.83;69.83;100917.75;4968124;28;19973;-68
2022/05/02 07:57:33;;;;;;;;;;;;;;;12.00;67.36;100919.56;4971554;28;20412;-68
2022/05/02 08:00:37;;;;;;;;;;;;;;;12.12;66.83;100920.66;4973105;28;20290;-68
2022/05/02 08:03:40;;;;;;;;;;;;;;;12.15;66.66;100910.84;4953918;29;19961;-69
2022/05/02 08:06:55;;;;;;;;;;;;;;;12.23;66.54;100900.84;4953722;28;19921;-68
2022/05/02 08:10:17;;;;;;;;;;;;;;;12.31;66.72;100903.03;4957652;29;19921;-68
2022/05/02 08:13:38;;;;;;;;;;;;;;;12.46;65.01;100901.38;4957311;29;19973;-68
2022/05/02 08:16:52;;;;;;;;;;;;;;;12.54;65.47;100904.44;4972595;28;20025;-67
2022/05/02 08:20:09;;;;;;;;;;;;;;;12.45;65.87;100899.69;4976716;28;20380;-67
2022/05/02 08:27:17;;;;;;;;;;;;;;;12.65;66.57;100890.72;4972695;28;19921;-68
2022/05/02 08:30:24;;;;;;;;;;;;;;;12.76;65.63;100889.22;4956919;29;19921;-68
2022/05/02 08:33:29;;;;;;;;;;;;;;;13.03;65.44;100883.34;4958009;28;20428;-68
2022/05/02 08:36:36;;;;;;;;;;;;;;;13.14;65.67;100883.56;4972597;28;19961;-68
2022/05/02 08:39:54;;;;;;;;;;;;;;;13.44;64.71;100875.72;4971051;28;19969;-68
2022/05/02 08:42:56;;;;;;;;;;;;;;;13.33;63.99;100883.38;4970512;28;19929;-68
2022/05/02 08:46:18;;;;;;;;;;;;;;;13.32;64.64;100876.44;4973102;28;19929;-68
2022/05/02 08:49:40;;;;;;;;;;;;;;;13.46;64.53;100865.13;4969526;28;19921;-68
2022/05/02 08:52:49;;;;;;;;;;;;;;;13.56;64.04;100879.44;4976010;28;20288;-68
2022/05/02 08:55:55;;;;;;;;;;;;;;;13.58;63.48;100876.69;4966153;28;20040;-69
2022/05/02 08:59:17;;;;;;;;;;;;;;;13.67;63.74;100877.00;4971041;28;19969;-69
2022/05/02 09:02:26;;;;;;;;;;;;;;;13.93;62.44;100872.78;4969583;28;19984;-70
2022/05/02 09:05:48;;;;;;;;;;;;;;;14.02;62.40;100871.38;4951919;29;19925;-68
2022/05/02 09:09:19;;;;;;;;;;;;;;;14.13;61.53;100868.94;4972329;28;19968;-68
2022/05/02 09:12:39;;;;;;;;;;;;;;;14.19;62.75;100870.34;4969967;28;19981;-68
2022/05/02 09:16:01;;;;;;;;;;;;;;;14.28;62.82;100867.16;4955617;28;20336;-68
2022/05/02 09:19:26;;;;;;;;;;;;;;;14.39;61.87;100864.72;4963722;28;19921;-68
2022/05/02 09:22:49;;;;;;;;;;;;;;;14.46;59.72;100861.69;4963910;28;19965;-68
2022/05/02 09:26:11;;;;;;;;;;;;;;;14.81;58.23;100859.47;4968195;28;19921;-68
2022/05/02 09:29:24;;;;;;;;;;;;;;;15.05;59.69;100855.22;4962883;28;19921;-82
2022/05/02 09:32:28;;;;;;;;;;;;;;;15.27;58.05;100846.75;4972831;28;19924;-69
2022/05/02 09:35:33;;;;;;;;;;;;;;;15.22;57.41;100848.00;4969118;28;19937;-68
2022/05/02 09:38:52;;;;;;;;;;;;;;;15.19;58.31;100849.06;4962358;28;19968;-69
2022/05/02 09:42:04;;;;;;;;;;;;;;;15.23;57.21;100834.72;4970390;28;20040;-68
2022/05/02 09:52:01;;;;;;;;;;;;;;;15.59;54.25;100828.75;4962060;28;20403;-68
2022/05/02 09:58:33;;;;;;;;;;;;;;;16.23;54.69;100820.81;4969776;28;20420;-69
2022/05/02 10:01:46;;;;;;;;;;;;;;;16.22;53.38;100819.13;4969971;28;19972;-68
2022/05/02 10:04:58;;;;;;;;;;;;;;;16.00;53.67;100811.88;4966325;28;19968;-68
2022/05/02 10:08:13;;;;;;;;;;;;;;;16.17;53.17;100807.22;4969039;28;19964;-69
2022/05/02 10:11:16;;;;;;;;;;;;;;;16.40;53.18;100801.16;4970867;28;19921;-68
2022/05/02 10:14:42;;;;;;;;;;;;;;;16.24;52.60;100805.81;4970397;28;19964;-68
2022/05/02 10:17:58;;;;;;;;;;;;;;;16.37;53.63;100796.09;4962146;28;20372;-69
2022/05/02 10:21:06;;;;;;;;;;;;;;;16.50;52.65;100793.41;4962284;28;19921;-69
2022/05/02 10:24:15;;;;;;;;;;;;;;;16.68;52.67;100799.13;4970802;28;20000;-69
2022/05/02 10:27:27;;;;;;;;;;;;;;;16.76;52.66;100791.53;4970534;28;20034;-69
2022/05/02 10:30:43;;;;;;;;;;;;;;;16.69;52.41;100784.97;4968753;28;19968;-69
2022/05/02 10:33:49;;;;;;;;;;;;;;;16.76;52.20;100791.53;4973970;28;20168;-69
2022/05/02 10:36:53;;;;;;;;;;;;;;;16.61;51.54;100784.69;4964412;28;19925;-69
2022/05/02 10:40:03;;;;;;;;;;;;;;;16.67;51.97;100778.97;4966856;28;19976;-69
2022/05/02 10:43:10;;;;;;;;;;;;;;;16.83;52.58;100776.91;4958241;28;20146;-69
2022/05/02 10:46:13;;;;;;;;;;;;;;;17.07;50.02;100770.72;4962741;28;19924;-69
2022/05/02 10:49:21;;;;;;;;;;;;;;;17.28;49.76;100760.34;4956551;28;19964;-69
2022/05/02 10:52:30;;;;;;;;;;;;;;;17.38;48.99;100750.72;4960432;28;19924;-69
2022/05/02 10:55:37;;;;;;;;;;;;;;;17.38;49.35;100756.00;4964973;28;19965;-68
2022/05/02 10:58:43;;;;;;;;;;;;;;;17.26;48.10;100762.25;4966680;28;19917;-67
2022/05/02 11:02:02;;;;;;;;;;;;;;;17.28;47.94;100747.97;4967911;28;19921;-68
2022/05/02 11:05:07;;;;;;;;;;;;;;;17.19;48.39;100738.09;4965676;28;19937;-67
2022/05/02 11:08:22;;;;;;;;;;;;;;;17.27;47.31;100745.44;4969126;28;20012;-68
2022/05/02 11:11:28;;;;;;;;;;;;;;;17.24;48.55;100735.94;4968936;28;19920;-68
2022/05/02 11:14:50;;;;;;;;;;;;;;;17.50;48.24;100741.00;4969223;28;19925;-69
2022/05/02 11:20:41;;;;;;;;;;;;;;;17.78;49.34;100732.63;4955566;28;19921;-70
2022/05/02 11:21:34;;;;;;;;;;;;;;;17.87;47.99;100734.56;4960519;28;19973;-70
2022/05/02 11:24:44;;;;;;;;;;;;;;;17.82;46.79;100736.72;4974881;28;20277;-70
2022/05/02 11:28:04;;;;;;;;;;;;;;;17.66;46.58;100734.41;4989040;28;19921;-70
2022/05/02 11:31:14;;;;;;;;;;;;;;;17.79;44.49;100723.72;4983105;28;20599;-70
2022/05/02 11:34:25;;;;;;;;;;;;;;;17.89;44.43;100731.78;4942163;28;19934;-70
2022/05/02 11:37:42;;;;;;;;;;;;;;;17.83;44.42;100719.88;4967610;28;19945;-70
2022/05/02 11:40:48;;;;;;;;;;;;;;;18.05;43.32;100716.34;4968962;28;20197;-70
2022/05/02 11:43:59;;;;;;;;;;;;;;;18.19;42.76;100709.94;4970121;28;20293;-70
2022/05/02 11:47:07;;;;;;;;;;;;;;;18.68;44.25;100705.91;4967943;28;19964;-70
2022/05/02 11:50:11;;;;;;;;;;;;;;;18.94;42.07;100706.38;4972275;28;20218;-70
2022/05/02 11:53:16;;;;;;;;;;;;;;;19.25;43.14;100704.63;4971479;28;19979;-70
2022/05/02 11:56:25;;;;;;;;;;;;;;;19.23;41.30;100695.94;4953048;28;20208;-70
2022/05/02 11:59:39;;;;;;;;;;;;;;;19.36;41.60;100690.44;4965647;28;20005;-70
2022/05/02 12:02:46;;;;;;;;;;;;;;;19.59;41.05;100687.59;4955350;28;20031;-71
2022/05/02 12:05:55;;;;;;;;;;;;;;;19.52;41.76;100687.28;4972520;28;20391;-68
2022/05/02 12:09:00;;;;;;;;;;;;;;;19.53;40.21;100686.34;4968038;28;19993;-68
2022/05/02 12:12:07;;;;;;;;;;;;;;;19.54;42.16;100698.59;4971625;28;19976;-68
2022/05/02 12:15:13;;;;;;;;;;;;;;;19.54;40.95;100682.69;4969761;28;19921;-68
2022/05/02 12:18:16;;;;;;;;;;;;;;;19.49;41.08;100684.91;4971455;28;19917;-68
2022/05/02 12:21:20;;;;;;;;;;;;;;;19.40;40.52;100683.03;4955603;28;19925;-68
2022/05/02 12:24:33;;;;;;;;;;;;;;;19.48;38.80;100677.91;4971304;28;19979;-68
2022/05/02 12:27:36;;;;;;;;;;;;;;;19.39;40.17;100678.72;4971409;28;19921;-72
2022/05/02 12:30:40;;;;;;;;;;;;;;;19.49;40.78;100663.69;4972579;28;20453;-70
2022/05/02 12:33:48;;;;;;;;;;;;;;;19.88;41.10;100675.28;4971609;28;20032;-70
2022/05/02 12:36:56;;;;;;;;;;;;;;;20.19;40.23;100662.72;4971615;28;20069;-70
2022/05/02 12:40:08;;;;;;;;;;;;;;;20.67;39.97;100661.06;4971297;28;19921;-70
2022/05/02 12:43:20;;;;;;;;;;;;;;;20.58;39.84;100665.44;4960404;28;19968;-70
2022/05/02 12:46:32;;;;;;;;;;;;;;;20.15;40.45;100664.00;4953323;29;19920;-70
2022/05/02 12:49:41;;;;;;;;;;;;;;;19.88;40.84;100666.50;4953415;29;19965;-70
2022/05/02 12:52:49;;;;;;;;;;;;;;;19.99;41.07;100669.00;4970309;28;19925;-70
2022/05/02 12:55:53;;;;;;;;;;;;;;;20.01;39.86;100659.09;4971396;28;20369;-71
2022/05/02 13:02:31;;;;;;;;;;;;;;;20.67;36.57;100651.28;4970689;28;19921;-72
2022/05/02 13:05:35;;;;;;;;;;;;;;;21.30;35.38;100644.53;4968892;28;19930;-72
2022/05/02 13:08:42;;;;;;;;;;;;;;;21.62;35.58;100640.63;4968153;28;20325;-72
2022/05/02 13:11:46;;;;;;;;;;;;;;;22.05;34.37;100637.25;4961135;28;20051;-72
2022/05/02 13:14:51;;;;;;;;;;;;;;;21.72;35.84;100625.44;4968926;28;19925;-72
2022/05/02 13:17:59;;;;;;;;;;;;;;;21.18;37.82;100629.75;4964458;28;19980;-72
2022/05/02 13:21:03;;;;;;;;;;;;;;;20.85;36.91;100622.16;4965848;28;20377;-72
2022/05/02 13:24:09;;;;;;;;;;;;;;;20.66;39.28;100632.84;4948067;28;19936;-72
2022/05/02 13:27:19;;;;;;;;;;;;;;;20.40;38.47;100629.91;4969501;28;19960;-72
2022/05/02 13:30:24;;;;;;;;;;;;;;;19.85;38.75;100621.66;4970595;28;19921;-72
2022/05/02 13:33:32;;;;;;;;;;;;;;;19.59;40.08;100622.13;4972780;28;19924;-72
2022/05/02 13:36:41;;;;;;;;;;;;;;;19.41;41.53;100623.75;4974432;28;19936;-72
2022/05/02 13:39:52;;;;;;;;;;;;;;;19.24;41.07;100622.56;4974975;28;20435;-72
2022/05/02 13:43:04;;;;;;;;;;;;;;;19.01;41.11;100616.59;4970643;28;19944;-72
2022/05/02 13:46:19;;;;;;;;;;;;;;;18.70;41.04;100611.28;4971400;28;19960;-72
2022/05/02 13:49:33;;;;;;;;;;;;;;;18.70;42.07;100608.63;4965619;28;20372;-72
2022/05/02 13:52:47;;;;;;;;;;;;;;;18.74;42.24;100609.22;4954858;29;20039;-72
2022/05/02 13:56:14;;;;;;;;;;;;;;;18.73;40.91;100611.03;4955535;29;19977;-72
2022/05/02 13:59:34;;;;;;;;;;;;;;;18.73;41.53;100607.53;4955609;29;20305;-72
2022/05/02 14:07:05;;;;;;;;;;;;;;;18.52;41.81;100600.41;4920031;29;19970;-69
2022/05/02 14:10:12;;;;;;;;;;;;;;;18.65;41.32;100600.22;4951071;29;20579;-69
2022/05/02 14:13:18;;;;;;;;;;;;;;;18.73;42.39;100596.94;4953472;28;19994;-70
2022/05/02 14:16:22;;;;;;;;;;;;;;;18.82;42.96;100596.16;4943129;28;19921;-71
2022/05/02 14:19:26;;;;;;;;;;;;;;;18.83;41.92;100599.66;4968084;28;19965;-71
2022/05/02 14:22:34;;;;;;;;;;;;;;;18.84;41.64;100599.53;4971266;28;20038;-70
2022/05/02 14:26:13;;;;;;;;;;;;;;;18.85;42.57;100595.06;4953652;28;20376;-70
2022/05/02 14:29:19;;;;;;;;;;;;;;;18.89;41.35;100592.03;4968830;28;19921;-70
2022/05/02 14:32:38;;;;;;;;;;;;;;;18.79;40.36;100591.97;4966313;28;20363;-70
2022/05/02 14:35:44;;;;;;;;;;;;;;;18.86;39.57;100591.44;4951066;28;20274;-70
2022/05/02 14:38:50;;;;;;;;;;;;;;;18.79;39.56;100585.81;4950636;29;19929;-70
2022/05/02 14:41:58;;;;;;;;;;;;;;;19.02;40.48;100581.22;4951020;29;20413;-70
2022/05/02 14:45:04;;;;;;;;;;;;;;;19.39;39.96;100581.44;4951274;29;19944;-70
2022/05/02 14:48:09;;;;;;;;;;;;;;;19.53;39.85;100574.94;4960317;28;19952;-70
2022/05/02 14:51:13;;;;;;;;;;;;;;;19.81;39.72;100565.34;4953609;28;20400;-70
2022/05/02 14:54:18;;;;;;;;;;;;;;;20.20;39.47;100568.84;4974085;28;20065;-70
2022/05/02 14:57:23;;;;;;;;;;;;;;;20.62;38.26;100568.53;4974064;28;19969;-70
2022/05/02 15:00:28;;;;;;;;;;;;;;;22.00;36.79;100562.31;4954613;29;19925;-70
2022/05/02 15:03:32;;;;;;;;;;;;;;;23.19;34.76;100560.78;4958024;28;19984;-70
2022/05/02 15:06:36;;;;;;;;;;;;;;;22.13;34.88;100556.59;4973447;28;19920;-68
2022/05/02 15:13:42;;;;;;;;;;;;;;;22.40;35.34;100551.19;4953586;29;19965;-69
2022/05/02 15:16:45;;;;;;;;;;;;;;;24.23;30.48;100553.28;4955881;28;19922;-69
2022/05/02 15:20:11;;;;;;;;;;;;;;;28.37;24.59;100545.38;4960000;29;19925;-69
2022/05/02 15:23:15;;;;;;;;;;;;;;;30.36;23.07;100537.13;4984802;28;19920;-69
2022/05/02 15:26:38;;;;;;;;;;;;;;;30.51;22.15;100531.50;4992100;28;19928;-69
2022/05/02 15:36:53;;;;;;;;;;;;;;;23.15;31.68;100539.94;4975832;28;19921;-69
2022/05/02 15:39:56;;;;;;;;;;;;;;;22.26;33.19;100533.94;4971476;28;19969;-69
2022/05/02 15:43:19;;;;;;;;;;;;;;;22.37;32.65;100532.84;4974559;28;19932;-69
2022/05/02 15:46:23;;;;;;;;;;;;;;;26.81;26.47;100517.28;4973233;28;19937;-69
2022/05/02 15:49:28;;;;;;;;;;;;;;;24.90;28.87;100520.91;4974126;28;19921;-69
2022/05/02 15:52:32;;;;;;;;;;;;;;;23.12;31.52;100525.06;4979441;28;19925;-69
2022/05/02 15:55:47;;;;;;;;;;;;;;;22.16;33.77;100530.53;4979607;28;19920;-69
2022/05/02 15:59:00;;;;;;;;;;;;;;;21.49;35.23;100522.09;4979691;28;19921;-69
2022/05/02 16:02:04;;;;;;;;;;;;;;;21.20;36.27;100527.56;4978939;28;19976;-69
2022/05/02 16:05:12;;;;;;;;;;;;;;;20.89;37.49;100521.72;4979444;28;19921;-69
2022/05/02 16:11:40;;;;;;;;;;;;;;;20.42;37.07;100521.69;4978708;28;20285;-69
2022/05/02 16:14:47;;;;;;;;;;;;;;;20.20;36.88;100521.06;4979738;28;19925;-69
2022/05/02 16:17:52;;;;;;;;;;;;;;;20.11;36.69;100519.25;4979261;28;20377;-68
2022/05/02 16:20:59;;;;;;;;;;;;;;;19.73;37.64;100520.97;4979574;28;19968;-69
2022/05/02 16:24:03;;;;;;;;;;;;;;;19.93;38.28;100519.13;4974743;28;19936;-68
2022/05/02 16:27:15;;;;;;;;;;;;;;;19.91;37.68;100515.81;4979495;28;19921;-69
2022/05/02 16:30:18;;;;;;;;;;;;;;;19.91;37.83;100520.25;4976566;28;20185;-68
2022/05/02 16:33:23;;;;;;;;;;;;;;;19.84;38.26;100513.81;4987473;28;19924;-68
2022/05/02 16:36:26;;;;;;;;;;;;;;;19.82;36.91;100516.63;4993126;28;20054;-69
2022/05/02 16:39:29;;;;;;;;;;;;;;;19.65;40.11;100514.66;4976467;28;20017;-68
2022/05/02 16:42:39;;;;;;;;;;;;;;;19.61;42.66;100514.06;4975562;28;19968;-69
2022/05/02 16:45:49;;;;;;;;;;;;;;;19.55;42.93;100509.31;4976098;28;19925;-69
2022/05/02 16:48:53;;;;;;;;;;;;;;;19.56;40.03;100511.03;4971717;28;19920;-69
2022/05/02 16:51:59;;;;;;;;;;;;;;;19.53;43.17;100508.63;4970768;28;19921;-68